FACT Airport Information

Runway Information
Runway 01 Length 10502 ft width 200 ft
Elevation 144 ft Threshold 0 ft Heading 346
Runway 19 Length 10502 ft Width 200 ft
Elevation 147 ft Threshold 0 ft Heading 166
Runway 16 Length 5581 ft width 151 ft
Elevation 143 ft Threshold 0 ft Heading 136
Runway 34 Length 5581 ft Width 151 ft
Elevation 151 ft Threshold 0 ft Heading 316
Airport Frequencies
Type APP Name APP Frequency 120.05 MHZ
Type ARSA Name Director Frequency 124.5 MHZ
Type ATIS Name ATIS Frequency 127 MHZ
Type GND Name GND Frequency 121.9 MHZ
Type GTE Name APRON Frequency 122.65 MHZ
Type TWR Name TWR Frequency 118.1 MHZ
Airport Navaids
Type NDB Name Cape Town Frequency 463 KHZ
Type VORTAC Name Cape Town Frequency 115700 KHZ
Airport Weather Information & NOTAM
ADDS - METARS form results

(0848 UTC 24 April 2018)
 
METAR text: FACT 240800Z 34009KT 310V020 9999 SCT025 FEW040TCU 18/14 Q1018 NOSIG
Conditions at: FACT (CAPETOWN/DF MALA, ZA) observed 0800 UTC 24 April 2018
Temperature: 18.0°C (64°F)
Dewpoint: 14.0°C (57°F) [RH = 77%]
Pressure (altimeter): 30.06 inches Hg (1018.0 mb)
Winds: from the NNW (340 degrees) at 10 MPH (9 knots; 4.7 m/s)
Visibility: 6 or more miles (10+ km)
Ceiling: at least 12,000 feet AGL
Clouds: scattered clouds at 2500 feet AGL
few clouds at 4000 feet AGL
Weather: no significant weather observed at this time